Stuart, OK (74570)

4:34 AM CDT on July 23, 2016 (GMT -0500)
Horntown OK | | Change Station
Active Advisory: Heat Advisory

Elev 827 ft 35.08 °N, 96.26 °W | Updated 7 minutes ago

Partly Cloudy
Partly Cloudy
74.1 °F
Feels Like 72 °F
N
0.0
Wind Variable Wind from SSW

Today
High -- | Low -- °F
--% Chance of Precip.
Yesterday
High -- | Low -- °F
Precip. -- in
Pressure 29.94 in
Visibility 10.0 miles
Clouds Few 10000 ft
Heat Index 72 °F
Dew Point 72 °F
Humidity 93%
Rainfall 0.00 in
Snow Depth Not available.
6:28 AM 8:33 PM
Waning Gibbous, 86% visible
METAR KMLC 230853Z AUTO 00000KT 10SM FEW100 24/22 A2998 RMK AO2 SLP139 T02390217 55005
Pressure 29.94 in
Visibility 10.0 miles
Clouds Few 10000 ft
Heat Index 72 °F
Dew Point 72 °F
Humidity 93%
Rainfall 0.00 in
Snow Depth Not available.
6:28 AM 8:33 PM
Waning Gibbous, 86% visible
METAR KMLC 230853Z AUTO 00000KT 10SM FEW100 24/22 A2998 RMK AO2 SLP139 T02390217 55005

10-Day Weather Forecast

Almanac

Astronomy

Jul. 23, 2016 Rise Set
Actual Time
Civil Twilight
Nautical Twilight
Astronomical Twilight
Moon
Length of Visible Light
Length of Day
Tomorrow will be .
, % of the Moon is Illuminated

Today's Extremes

State Highs State Lows

Community

WunderPhotos

Upload Photos

1,926,790 photos uploaded!

WunderBlog® & News

Nearby

Air Quality

  Air Quality AQ Index Pollutant
Not available.

Snow Depth

Station Depth Elevation

Earthquake Activity

City Distance Mag. Time & Date
Minimum magnitude displayed is 2.5.

Coastal Water Temperatures

Place Temperature

Stations

Nearby Weather Stations

Station Location Temp. Windchill Dew Point Humidity Wind Precip. Elev Updated Type
                   

Watches & Warnings

Heat Advisory
Issued: 3:13 AM CDT Jul. 23, 2016 – National Weather Service

... Heat advisory now in effect until 8 PM CDT Sunday...

* temperature... afternoon and early evening heat index values
105 to 110.

* Impacts... heat exhaustion or heat stroke can quickly occur to
anyone working or participating in outdoor activities.

Precautionary/preparedness actions...

Take extra precautions if you work or spend time outside. When
possible... reschedule strenuous activities to early morning or
evening. Know the signs and symptoms of heat exhaustion and heat
stroke. Wear lightweight and loose fitting clothing when possible
and drink plenty of water.

To reduce risk during outdoor work the occupational safety and
health administration recommends scheduling frequent rest breaks
in shaded or air conditioned environments. Anyone overcome by
heat should be moved to a cool and shaded location. Heat stroke
is an emergency... call 9 1 1.